createdAt,value
2018-04-27T00:00:42.452Z,0.00
2018-04-27T00:01:42.408Z,0.00
2018-04-27T00:02:42.360Z,0.00
2018-04-27T00:03:42.319Z,0.00
2018-04-27T00:04:42.271Z,0.00
2018-04-27T00:05:42.225Z,0.00
2018-04-27T00:06:42.180Z,0.00
2018-04-27T00:07:42.136Z,0.00
2018-04-27T00:08:42.088Z,0.00
2018-04-27T00:09:42.040Z,0.00
2018-04-27T00:10:42.003Z,0.00
2018-04-27T00:11:41.971Z,0.00
2018-04-27T00:12:41.911Z,0.00
2018-04-27T00:13:41.856Z,0.00
2018-04-27T00:14:41.814Z,0.00
2018-04-27T00:15:41.768Z,0.00
2018-04-27T00:16:41.737Z,0.00
2018-04-27T00:17:41.677Z,0.00
2018-04-27T00:18:41.630Z,0.00
2018-04-27T00:19:41.584Z,0.00
2018-04-27T00:20:41.537Z,0.00
2018-04-27T00:21:41.490Z,0.00
2018-04-27T00:22:41.445Z,0.00
2018-04-27T00:23:41.405Z,0.00
2018-04-27T00:24:41.360Z,0.00
2018-04-27T00:25:41.307Z,0.00
2018-04-27T00:26:41.263Z,0.00
2018-04-27T00:27:41.217Z,0.00
2018-04-27T00:28:41.173Z,0.00
2018-04-27T00:29:41.125Z,0.00
2018-04-27T00:30:41.082Z,0.00
2018-04-27T00:31:41.034Z,0.00
2018-04-27T00:32:40.988Z,0.00
2018-04-27T00:33:40.942Z,0.00
2018-04-27T00:34:40.897Z,0.00
2018-04-27T00:35:40.852Z,0.00
2018-04-27T00:36:40.818Z,0.00
2018-04-27T00:37:40.762Z,0.00
2018-04-27T00:38:40.719Z,0.00
2018-04-27T00:39:40.669Z,0.00
2018-04-27T00:40:40.620Z,0.00
2018-04-27T00:41:40.576Z,0.00
2018-04-27T00:42:40.532Z,0.00
2018-04-27T00:43:40.486Z,0.00
2018-04-27T00:44:40.439Z,0.00
2018-04-27T00:45:40.394Z,0.00
2018-04-27T00:46:40.350Z,0.00
2018-04-27T00:47:40.305Z,0.00
2018-04-27T00:48:40.258Z,0.00
2018-04-27T00:49:40.218Z,0.00
2018-04-27T00:50:40.172Z,0.00
2018-04-27T00:51:40.123Z,0.00
2018-04-27T00:52:40.107Z,0.00
2018-04-27T00:53:40.028Z,0.00
2018-04-27T00:54:39.985Z,0.00
2018-04-27T00:55:39.940Z,0.00
2018-04-27T00:56:39.894Z,0.00
2018-04-27T00:57:39.846Z,0.00
2018-04-27T00:58:39.803Z,0.00
2018-04-27T00:59:39.758Z,0.00
2018-04-27T01:00:39.706Z,0.00
2018-04-27T01:01:39.665Z,0.00
2018-04-27T01:02:39.617Z,0.00
2018-04-27T01:03:39.570Z,0.00
2018-04-27T01:04:39.526Z,0.00
2018-04-27T01:05:39.478Z,0.00
2018-04-27T01:06:39.435Z,0.00
2018-04-27T01:07:39.391Z,0.00
2018-04-27T01:08:39.343Z,0.00
2018-04-27T01:09:39.299Z,0.00
2018-04-27T01:10:39.253Z,0.00
2018-04-27T01:11:39.206Z,0.00
2018-04-27T01:12:39.159Z,0.00
2018-04-27T01:13:39.113Z,0.00
2018-04-27T01:14:39.069Z,0.00
2018-04-27T01:15:39.024Z,0.00
2018-04-27T01:16:38.976Z,0.00
2018-04-27T01:17:38.929Z,0.00
2018-04-27T01:18:38.885Z,0.00
2018-04-27T01:19:38.840Z,0.00
2018-04-27T01:20:38.794Z,0.00
2018-04-27T01:21:38.748Z,0.00
2018-04-27T01:22:38.704Z,0.00
2018-04-27T01:23:38.660Z,0.00
2018-04-27T01:24:38.610Z,0.00
2018-04-27T01:25:38.564Z,0.00
2018-04-27T01:26:38.522Z,0.00
2018-04-27T01:27:38.475Z,0.00
2018-04-27T01:28:38.429Z,0.00
2018-04-27T01:29:38.380Z,0.00
2018-04-27T01:30:38.335Z,0.00
2018-04-27T01:31:38.288Z,0.00
2018-04-27T01:32:38.241Z,0.00
2018-04-27T01:33:38.196Z,0.00
2018-04-27T01:34:38.151Z,0.00
2018-04-27T01:35:38.108Z,0.00
2018-04-27T01:36:38.059Z,0.00
2018-04-27T01:37:38.016Z,0.00
2018-04-27T01:38:37.968Z,0.00
2018-04-27T01:39:37.925Z,0.00
2018-04-27T01:40:37.875Z,0.00
2018-04-27T01:41:37.835Z,0.00
2018-04-27T01:42:37.784Z,0.00
2018-04-27T01:43:37.739Z,0.00
2018-04-27T01:44:37.693Z,0.00
2018-04-27T01:45:37.646Z,0.00
2018-04-27T01:46:37.604Z,0.00
2018-04-27T01:47:37.554Z,0.00
2018-04-27T01:48:37.511Z,0.00
2018-04-27T01:49:37.466Z,0.00
2018-04-27T01:50:37.420Z,0.00
2018-04-27T01:51:37.372Z,0.00
2018-04-27T01:52:37.331Z,0.00
2018-04-27T01:53:37.281Z,0.00
2018-04-27T01:54:37.236Z,0.00
2018-04-27T01:55:37.191Z,0.00
2018-04-27T01:56:37.145Z,0.00
2018-04-27T01:57:37.098Z,0.00
2018-04-27T01:58:37.054Z,0.00
2018-04-27T01:59:37.008Z,0.00
2018-04-27T02:00:36.961Z,0.00
2018-04-27T02:01:36.915Z,0.00
2018-04-27T02:02:36.870Z,0.00
2018-04-27T02:03:36.822Z,0.00
2018-04-27T02:04:36.776Z,0.00
2018-04-27T02:05:36.736Z,0.00
2018-04-27T02:06:36.687Z,0.00
2018-04-27T02:07:36.641Z,0.00
2018-04-27T02:08:36.594Z,0.00
2018-04-27T02:09:36.547Z,0.00
2018-04-27T02:10:36.502Z,0.00
2018-04-27T02:11:36.455Z,0.00
2018-04-27T02:12:36.409Z,0.00
2018-04-27T02:13:36.364Z,0.00
2018-04-27T02:14:36.319Z,0.00
2018-04-27T02:15:36.272Z,0.00
2018-04-27T02:16:36.228Z,0.00
2018-04-27T02:17:36.180Z,0.00
2018-04-27T02:18:36.135Z,0.00
2018-04-27T02:19:36.089Z,0.00
2018-04-27T02:20:36.044Z,0.00
2018-04-27T02:21:35.996Z,0.00
2018-04-27T02:22:35.953Z,0.00
2018-04-27T02:23:35.904Z,0.00
2018-04-27T02:24:35.860Z,0.00
2018-04-27T02:25:35.811Z,0.00
2018-04-27T02:26:35.768Z,0.00
2018-04-27T02:27:35.721Z,0.00
2018-04-27T02:28:35.679Z,0.00
2018-04-27T02:29:35.630Z,0.00
2018-04-27T02:30:35.586Z,0.00
2018-04-27T02:31:35.550Z,0.00
2018-04-27T02:32:35.492Z,0.00
2018-04-27T02:33:35.445Z,0.00
2018-04-27T02:34:35.400Z,0.00
2018-04-27T02:35:35.353Z,0.00
2018-04-27T02:36:35.306Z,0.00
2018-04-27T02:37:35.261Z,0.00
2018-04-27T02:38:35.214Z,0.00
2018-04-27T02:39:35.176Z,0.00
2018-04-27T02:40:35.122Z,0.00
2018-04-27T02:41:35.080Z,0.00
2018-04-27T02:42:35.043Z,0.00
2018-04-27T02:43:34.987Z,0.00
2018-04-27T02:44:34.939Z,0.00
2018-04-27T02:45:34.892Z,0.00
2018-04-27T02:46:34.847Z,0.00
2018-04-27T02:47:34.800Z,0.00
2018-04-27T02:48:34.757Z,0.00
2018-04-27T02:49:34.709Z,0.00
2018-04-27T02:50:34.664Z,0.00
2018-04-27T02:51:34.633Z,0.00
2018-04-27T02:52:34.575Z,0.00
2018-04-27T02:53:34.528Z,0.00
2018-04-27T02:54:34.482Z,0.00
2018-04-27T02:55:34.433Z,0.00
2018-04-27T02:56:34.387Z,0.00
2018-04-27T02:57:34.340Z,0.00
2018-04-27T02:58:34.296Z,0.00
2018-04-27T02:59:34.249Z,0.00
2018-04-27T03:00:34.208Z,0.00
2018-04-27T03:01:34.157Z,0.00
2018-04-27T03:02:34.111Z,0.00
2018-04-27T03:03:34.067Z,0.00
2018-04-27T03:04:34.021Z,0.00
2018-04-27T03:05:33.978Z,0.00
2018-04-27T03:06:33.929Z,0.00
2018-04-27T03:07:33.885Z,0.00
2018-04-27T03:08:33.839Z,0.00
2018-04-27T03:09:33.790Z,0.00
2018-04-27T03:10:33.746Z,0.00
2018-04-27T03:11:33.699Z,0.00
2018-04-27T03:12:33.652Z,0.00
2018-04-27T03:13:33.608Z,0.00
2018-04-27T03:14:33.560Z,0.00
2018-04-27T03:15:33.515Z,0.00
2018-04-27T03:16:33.467Z,0.00
2018-04-27T03:17:33.420Z,0.00
2018-04-27T03:18:33.378Z,0.00
2018-04-27T03:19:33.330Z,0.00
2018-04-27T03:20:33.283Z,0.00
2018-04-27T03:21:33.238Z,0.00
2018-04-27T03:22:33.190Z,0.00
2018-04-27T03:23:33.146Z,0.00
2018-04-27T03:24:33.099Z,0.00
2018-04-27T03:25:33.051Z,0.00
2018-04-27T03:26:33.008Z,0.00
2018-04-27T03:27:32.963Z,0.00
2018-04-27T03:28:32.915Z,0.00
2018-04-27T03:29:32.867Z,0.00
2018-04-27T03:30:32.830Z,0.00
2018-04-27T03:31:32.780Z,0.00
2018-04-27T03:32:32.733Z,0.00
2018-04-27T03:33:32.685Z,0.00
2018-04-27T03:34:32.638Z,0.00
2018-04-27T03:35:32.597Z,0.00
2018-04-27T03:36:32.546Z,0.00
2018-04-27T03:37:32.501Z,0.00
2018-04-27T03:38:32.456Z,0.00
2018-04-27T03:39:32.409Z,0.00
2018-04-27T03:40:32.360Z,0.00
2018-04-27T03:41:32.314Z,0.00
2018-04-27T03:42:32.269Z,0.00
2018-04-27T03:43:32.225Z,0.00
2018-04-27T03:44:32.178Z,0.00
2018-04-27T03:45:32.133Z,0.00
2018-04-27T03:46:32.085Z,0.00
2018-04-27T03:47:32.044Z,0.00
2018-04-27T03:48:31.991Z,4.00
2018-04-27T03:49:31.946Z,4.00
2018-04-27T03:50:31.898Z,4.00
2018-04-27T03:51:31.857Z,0.00
2018-04-27T03:52:31.806Z,4.00
2018-04-27T03:53:31.760Z,4.00
2018-04-27T03:54:31.714Z,4.00
2018-04-27T03:55:31.674Z,4.00
2018-04-27T03:56:31.621Z,8.00
2018-04-27T03:57:31.577Z,8.00
2018-04-27T03:58:31.533Z,8.00
2018-04-27T03:59:31.486Z,12.00
2018-04-27T04:00:31.438Z,12.00
2018-04-27T04:01:31.393Z,16.00
2018-04-27T04:02:31.359Z,16.00
2018-04-27T04:03:31.298Z,20.00
2018-04-27T04:04:31.254Z,20.00
2018-04-27T04:05:31.213Z,24.00
2018-04-27T04:06:31.161Z,28.00
2018-04-27T04:07:31.113Z,32.00
2018-04-27T04:08:31.068Z,36.00
2018-04-27T04:09:31.025Z,36.00
2018-04-27T04:10:30.975Z,44.00
2018-04-27T04:11:30.934Z,48.00
2018-04-27T04:12:30.884Z,52.00
2018-04-27T04:13:30.835Z,56.00
2018-04-27T04:14:30.789Z,64.00
2018-04-27T04:15:30.742Z,72.00
2018-04-27T04:16:30.700Z,72.00
2018-04-27T04:17:30.653Z,80.00
2018-04-27T04:18:30.608Z,92.00
2018-04-27T04:19:30.562Z,96.00
2018-04-27T04:20:30.534Z,104.00
2018-04-27T04:21:30.466Z,112.00
2018-04-27T04:22:30.430Z,120.00
2018-04-27T04:23:30.371Z,132.00
2018-04-27T04:24:30.328Z,144.00
2018-04-27T04:25:30.282Z,156.00
2018-04-27T04:26:30.239Z,172.00
2018-04-27T04:27:30.187Z,184.00
2018-04-27T04:28:30.140Z,196.00
2018-04-27T04:29:30.097Z,216.00
2018-04-27T04:30:30.048Z,232.00
2018-04-27T04:31:30.007Z,248.00
2018-04-27T04:32:29.955Z,268.00
2018-04-27T04:33:29.907Z,288.00
2018-04-27T04:34:29.862Z,308.00
2018-04-27T04:35:29.826Z,332.00
2018-04-27T04:36:29.771Z,352.00
2018-04-27T04:37:29.723Z,372.00
2018-04-27T04:38:29.681Z,392.00
2018-04-27T04:39:29.631Z,416.00
2018-04-27T04:40:29.585Z,440.00
2018-04-27T04:41:29.537Z,464.00
2018-04-27T04:42:29.497Z,492.00
2018-04-27T04:43:29.446Z,508.00
2018-04-27T04:44:29.403Z,520.00
2018-04-27T04:45:29.354Z,520.00
2018-04-27T04:46:29.310Z,512.00
2018-04-27T04:47:29.260Z,504.00
2018-04-27T04:48:29.213Z,512.00
2018-04-27T04:49:29.170Z,532.00
2018-04-27T04:50:29.118Z,556.00
2018-04-27T04:51:29.076Z,576.00
2018-04-27T04:52:29.077Z,588.00
2018-04-27T04:53:28.981Z,592.00
2018-04-27T04:54:28.934Z,600.00
2018-04-27T04:55:28.888Z,600.00
2018-04-27T04:56:28.843Z,604.00
2018-04-27T04:57:28.797Z,604.00
2018-04-27T04:58:28.750Z,612.00
2018-04-27T04:59:28.717Z,612.00
2018-04-27T05:00:28.658Z,652.00
2018-04-27T05:01:28.615Z,664.00
2018-04-27T05:02:28.569Z,684.00
2018-04-27T05:03:28.520Z,692.00
2018-04-27T05:04:28.474Z,692.00
2018-04-27T05:05:28.428Z,704.00
2018-04-27T05:06:28.379Z,724.00
2018-04-27T05:07:28.335Z,740.00
2018-04-27T05:08:28.287Z,768.00
2018-04-27T05:09:28.243Z,792.00
2018-04-27T05:10:28.200Z,808.00
2018-04-27T05:11:28.149Z,820.00
2018-04-27T05:12:28.103Z,832.00
2018-04-27T05:13:28.058Z,848.00
2018-04-27T05:14:28.013Z,868.00
2018-04-27T05:15:27.979Z,892.00
2018-04-27T05:16:27.920Z,908.00
2018-04-27T05:17:27.874Z,920.00
2018-04-27T05:18:27.827Z,920.00
2018-04-27T05:19:27.785Z,940.00
2018-04-27T05:20:27.741Z,964.00
2018-04-27T05:21:27.690Z,960.00
2018-04-27T05:22:27.649Z,968.00
2018-04-27T05:23:27.600Z,992.00
2018-04-27T05:24:27.553Z,1032.00
2018-04-27T05:25:27.527Z,1064.00
2018-04-27T05:26:27.462Z,1064.00
2018-04-27T05:27:27.415Z,1072.00
2018-04-27T05:28:27.372Z,1076.00
2018-04-27T05:29:27.323Z,1104.00
2018-04-27T05:30:27.277Z,1124.00
2018-04-27T05:31:27.235Z,1132.00
2018-04-27T05:32:27.186Z,1128.00
2018-04-27T05:33:27.142Z,1124.00
2018-04-27T05:34:27.096Z,1132.00
2018-04-27T05:35:27.050Z,1160.00
2018-04-27T05:36:27.004Z,1160.00
2018-04-27T05:37:26.958Z,1132.00
2018-04-27T05:38:26.914Z,1120.00
2018-04-27T05:39:26.867Z,1120.00
2018-04-27T05:40:26.821Z,1136.00
2018-04-27T05:41:26.779Z,1144.00
2018-04-27T05:42:26.730Z,1168.00
2018-04-27T05:43:26.733Z,1160.00
2018-04-27T05:44:26.641Z,1164.00
2018-04-27T05:45:26.599Z,1148.00
2018-04-27T05:46:26.549Z,1136.00
2018-04-27T05:47:26.504Z,1144.00
2018-04-27T05:48:26.464Z,1152.00
2018-04-27T05:49:26.414Z,1156.00
2018-04-27T05:50:26.369Z,1172.00
2018-04-27T05:51:26.325Z,1164.00
2018-04-27T05:52:26.280Z,1152.00
2018-04-27T05:53:26.236Z,1144.00
2018-04-27T05:54:26.196Z,1144.00
2018-04-27T05:56:26.100Z,1148.00
2018-04-27T05:57:26.064Z,1160.00
2018-04-27T05:58:26.015Z,1180.00
2018-04-27T05:59:25.971Z,1204.00
2018-04-27T06:00:25.926Z,1228.00
2018-04-27T06:01:25.876Z,1232.00
2018-04-27T06:02:25.831Z,1248.00
2018-04-27T06:03:25.789Z,1256.00
2018-04-27T06:04:25.740Z,1268.00
2018-04-27T06:05:25.699Z,1268.00
2018-04-27T06:06:25.648Z,1272.00
2018-04-27T06:07:25.609Z,1276.00
2018-04-27T06:08:25.559Z,1276.00
2018-04-27T06:09:25.547Z,1260.00
2018-04-27T06:10:25.518Z,1244.00
2018-04-27T06:11:25.427Z,1272.00
2018-04-27T06:12:25.380Z,1276.00
2018-04-27T06:13:25.333Z,1284.00
2018-04-27T06:14:25.290Z,1288.00
2018-04-27T06:15:25.245Z,1304.00
2018-04-27T06:16:25.201Z,1308.00
2018-04-27T06:17:25.154Z,1324.00
2018-04-27T06:18:25.113Z,1336.00
2018-04-27T06:19:25.066Z,1360.00
2018-04-27T06:20:25.020Z,1376.00
2018-04-27T06:21:24.977Z,1388.00
2018-04-27T06:22:24.931Z,1396.00
2018-04-27T06:23:24.886Z,1400.00
2018-04-27T06:24:24.841Z,1404.00
2018-04-27T06:25:24.800Z,1416.00
2018-04-27T06:26:24.754Z,1412.00
2018-04-27T06:27:24.711Z,1408.00
2018-04-27T06:28:24.664Z,1404.00
2018-04-27T06:29:24.621Z,1400.00
2018-04-27T06:30:24.577Z,1420.00
2018-04-27T06:31:24.533Z,1408.00
2018-04-27T06:32:24.486Z,1424.00
2018-04-27T06:33:24.440Z,1432.00
2018-04-27T06:34:24.397Z,1408.00
2018-04-27T06:35:24.352Z,1436.00
2018-04-27T06:36:24.307Z,1480.00
2018-04-27T06:37:24.265Z,1524.00
2018-04-27T06:38:24.222Z,1572.00
2018-04-27T06:39:24.225Z,1552.00
2018-04-27T06:40:24.129Z,1612.00
2018-04-27T06:41:24.088Z,1616.00
2018-04-27T06:42:24.048Z,1612.00
2018-04-27T06:43:24.001Z,1604.00
2018-04-27T06:44:23.952Z,1596.00
2018-04-27T06:45:23.910Z,1620.00
2018-04-27T06:46:23.868Z,1636.00
2018-04-27T06:47:23.825Z,1632.00
2018-04-27T06:48:23.775Z,1588.00
2018-04-27T06:49:23.732Z,1596.00
2018-04-27T06:50:23.695Z,1512.00
2018-04-27T06:51:23.643Z,1512.00
2018-04-27T06:52:23.603Z,1468.00
2018-04-27T06:53:23.557Z,1468.00
2018-04-27T06:54:23.512Z,1480.00
2018-04-27T06:55:23.468Z,1480.00
2018-04-27T06:56:23.426Z,1496.00
2018-04-27T06:57:23.379Z,1516.00
2018-04-27T06:58:23.335Z,1408.00
2018-04-27T06:59:23.335Z,1632.00
2018-04-27T07:00:23.258Z,1684.00
2018-04-27T07:01:23.213Z,1712.00
2018-04-27T07:02:23.172Z,1776.00
2018-04-27T07:03:23.115Z,1836.00
2018-04-27T07:04:23.073Z,1904.00
2018-04-27T07:05:23.038Z,1976.00
2018-04-27T07:06:22.988Z,2000.00
2018-04-27T07:07:22.942Z,2020.00
2018-04-27T07:08:22.898Z,2024.00
2018-04-27T07:09:22.854Z,2068.00
2018-04-27T07:10:22.810Z,2024.00
2018-04-27T07:11:22.766Z,1988.00
2018-04-27T07:12:22.723Z,2168.00
2018-04-27T07:13:22.680Z,2076.00
2018-04-27T07:14:22.639Z,2328.00
2018-04-27T07:15:22.593Z,2400.00
2018-04-27T07:16:22.549Z,2424.00
2018-04-27T07:17:22.509Z,2472.00
2018-04-27T07:18:22.462Z,2504.00
2018-04-27T07:19:22.418Z,2552.00
2018-04-27T07:20:22.373Z,2600.00
2018-04-27T07:21:22.333Z,2508.00
2018-04-27T07:22:22.291Z,2728.00
2018-04-27T07:23:22.247Z,2824.00
2018-04-27T07:24:22.248Z,2872.00
2018-04-27T07:25:22.197Z,2852.00
2018-04-27T07:26:22.118Z,2832.00
2018-04-27T07:27:22.073Z,2864.00
2018-04-27T07:28:22.031Z,2756.00
2018-04-27T07:29:21.987Z,2704.00
2018-04-27T07:30:21.942Z,2828.00
2018-04-27T07:31:21.901Z,2928.00
2018-04-27T07:32:21.857Z,2848.00
2018-04-27T07:33:21.820Z,3060.00
2018-04-27T07:35:21.732Z,3300.00
2018-04-27T07:36:21.686Z,3268.00
2018-04-27T07:37:21.644Z,3492.00
2018-04-27T07:38:21.604Z,3604.00
2018-04-27T07:39:21.559Z,3640.00
2018-04-27T07:40:21.517Z,3712.00
2018-04-27T07:41:21.477Z,3844.00
2018-04-27T07:42:21.431Z,3748.00
2018-04-27T07:43:21.387Z,3592.00
2018-04-27T07:44:21.349Z,3524.00
2018-04-27T07:45:21.388Z,3500.00
2018-04-27T07:46:21.353Z,3400.00
2018-04-27T07:47:21.313Z,3616.00
2018-04-27T07:48:21.180Z,3628.00
2018-04-27T07:49:21.141Z,3592.00
2018-04-27T07:50:21.099Z,3696.00
2018-04-27T07:51:21.053Z,3768.00
2018-04-27T07:52:21.011Z,3908.00
2018-04-27T07:53:20.970Z,3860.00
2018-04-27T07:54:20.928Z,3924.00
2018-04-27T07:55:20.897Z,3956.00
2018-04-27T07:56:20.848Z,3884.00
2018-04-27T07:57:20.807Z,3868.00
2018-04-27T07:58:20.765Z,3284.00
2018-04-27T07:59:20.723Z,3592.00
2018-04-27T08:00:20.681Z,3568.00
2018-04-27T08:01:20.642Z,3628.00
2018-04-27T08:02:20.670Z,3624.00
2018-04-27T08:03:20.562Z,3644.00
2018-04-27T08:04:20.521Z,3656.00
2018-04-27T08:05:20.476Z,3576.00
2018-04-27T08:06:20.439Z,3572.00
2018-04-27T08:08:20.358Z,3476.00
2018-04-27T08:09:20.316Z,3484.00
2018-04-27T08:10:20.275Z,3740.00
2018-04-27T08:12:20.191Z,4004.00
2018-04-27T08:13:20.151Z,3792.00
2018-04-27T08:14:20.108Z,4160.00
2018-04-27T08:16:20.031Z,3804.00
2018-04-27T08:17:19.986Z,3744.00
2018-04-27T08:18:19.945Z,3912.00
2018-04-27T08:19:19.905Z,3872.00
2018-04-27T08:20:19.864Z,4104.00
2018-04-27T08:21:19.825Z,4116.00
2018-04-27T08:22:19.785Z,3852.00
2018-04-27T08:23:19.746Z,3780.00
2018-04-27T08:24:19.703Z,3896.00
2018-04-27T08:25:19.664Z,3452.00
2018-04-27T08:26:19.625Z,3568.00
2018-04-27T08:27:19.583Z,3964.00
2018-04-27T08:28:19.548Z,3980.00
2018-04-27T08:29:19.505Z,3776.00
2018-04-27T08:30:19.531Z,3448.00
2018-04-27T08:31:19.424Z,3280.00
2018-04-27T08:32:19.390Z,3480.00
2018-04-27T08:33:19.347Z,3564.00
2018-04-27T08:34:19.364Z,3268.00
2018-04-27T08:35:19.267Z,3444.00
2018-04-27T08:36:19.224Z,3588.00
2018-04-27T08:37:19.187Z,3728.00
2018-04-27T08:38:19.146Z,3580.00
2018-04-27T08:39:19.106Z,3812.00
2018-04-27T08:40:19.065Z,4520.00
2018-04-27T08:41:19.028Z,4644.00
2018-04-27T08:42:18.989Z,4528.00
2018-04-27T08:43:18.961Z,4236.00
2018-04-27T08:44:18.907Z,4212.00
2018-04-27T08:45:18.875Z,4212.00
2018-04-27T08:46:18.831Z,4164.00
2018-04-27T08:47:18.792Z,3924.00
2018-04-27T08:48:18.754Z,3864.00
2018-04-27T08:49:18.715Z,3860.00
2018-04-27T08:50:18.681Z,3748.00
2018-04-27T08:51:18.637Z,3788.00
2018-04-27T08:52:18.599Z,3928.00
2018-04-27T08:53:18.557Z,3976.00
2018-04-27T08:54:18.531Z,4188.00
2018-04-27T08:55:18.479Z,4072.00
2018-04-27T08:56:18.438Z,4240.00
2018-04-27T08:57:18.404Z,4436.00
2018-04-27T08:58:18.369Z,4284.00
2018-04-27T08:59:18.323Z,4096.00
2018-04-27T09:00:18.284Z,3068.00
2018-04-27T09:01:18.245Z,2492.00
2018-04-27T09:02:18.209Z,3860.00
2018-04-27T09:03:18.168Z,4056.00
2018-04-27T09:04:18.129Z,4400.00
2018-04-27T09:05:18.091Z,4392.00
2018-04-27T09:06:18.098Z,4304.00
2018-04-27T09:07:18.015Z,4364.00
2018-04-27T09:08:17.975Z,4460.00
2018-04-27T09:09:17.936Z,4472.00
2018-04-27T09:10:17.899Z,4520.00
2018-04-27T09:11:17.864Z,4504.00
2018-04-27T09:12:17.819Z,4596.00
2018-04-27T09:13:17.782Z,4688.00
2018-04-27T09:14:17.745Z,4764.00
2018-04-27T09:15:17.707Z,4792.00
2018-04-27T09:16:17.673Z,4852.00
2018-04-27T09:17:17.626Z,4740.00
2018-04-27T09:18:17.588Z,4620.00
2018-04-27T09:19:17.550Z,4656.00
2018-04-27T09:20:17.517Z,4656.00
2018-04-27T09:21:17.472Z,4796.00
2018-04-27T09:22:17.433Z,4824.00
2018-04-27T09:23:17.396Z,4692.00
2018-04-27T09:24:17.363Z,4616.00
2018-04-27T09:25:17.321Z,4612.00
2018-04-27T09:26:17.278Z,4524.00
2018-04-27T09:27:17.242Z,4636.00
2018-04-27T09:28:17.202Z,4688.00
2018-04-27T09:29:17.162Z,4752.00
2018-04-27T09:30:17.123Z,4856.00
2018-04-27T09:31:17.088Z,4824.00
2018-04-27T09:32:17.070Z,4792.00
2018-04-27T09:33:17.007Z,4940.00
2018-04-27T09:34:16.972Z,4944.00
2018-04-27T09:35:16.932Z,4880.00
2018-04-27T09:36:16.893Z,4764.00
2018-04-27T09:37:16.852Z,4708.00
2018-04-27T09:38:16.816Z,4396.00
2018-04-27T09:39:16.781Z,4364.00
2018-04-27T09:40:16.739Z,4400.00
2018-04-27T09:41:16.701Z,4312.00
2018-04-27T09:42:16.674Z,4288.00
2018-04-27T09:43:16.625Z,4444.00
2018-04-27T09:44:16.583Z,4576.00
2018-04-27T09:45:16.545Z,4636.00
2018-04-27T09:46:16.506Z,4696.00
2018-04-27T09:47:16.470Z,4800.00
2018-04-27T09:48:16.430Z,4952.00
2018-04-27T09:49:16.391Z,4852.00
2018-04-27T09:50:16.358Z,4512.00
2018-04-27T09:51:16.334Z,4616.00
2018-04-27T09:52:16.299Z,4880.00
2018-04-27T09:53:16.264Z,5196.00
2018-04-27T09:54:16.279Z,4904.00
2018-04-27T09:55:16.176Z,4768.00
2018-04-27T09:56:16.153Z,5144.00
2018-04-27T09:57:16.083Z,5056.00
2018-04-27T09:58:16.048Z,4976.00
2018-04-27T09:59:16.009Z,4812.00
2018-04-27T10:00:15.967Z,4884.00
2018-04-27T10:01:15.928Z,4900.00
2018-04-27T10:02:15.887Z,4896.00
2018-04-27T10:03:15.850Z,4884.00
2018-04-27T10:04:15.811Z,5112.00
2018-04-27T10:05:15.770Z,5164.00
2018-04-27T10:06:15.737Z,5168.00
2018-04-27T10:07:15.695Z,5100.00
2018-04-27T10:08:15.657Z,5140.00
2018-04-27T10:09:15.616Z,5084.00
2018-04-27T10:10:15.579Z,5060.00
2018-04-27T10:11:15.540Z,4980.00
2018-04-27T10:12:15.502Z,5116.00
2018-04-27T10:13:15.467Z,4984.00
2018-04-27T10:14:15.427Z,4884.00
2018-04-27T10:15:15.385Z,4908.00
2018-04-27T10:16:15.354Z,5144.00
2018-04-27T10:17:15.316Z,5272.00
2018-04-27T10:18:15.272Z,5320.00
2018-04-27T10:19:15.243Z,5228.00
2018-04-27T10:20:15.197Z,5124.00
2018-04-27T10:21:15.160Z,5164.00
2018-04-27T10:22:15.122Z,5260.00
2018-04-27T10:23:15.080Z,5228.00
2018-04-27T10:24:15.040Z,5236.00
2018-04-27T10:25:15.000Z,4984.00
2018-04-27T10:26:14.963Z,4996.00
2018-04-27T10:27:14.923Z,5004.00
2018-04-27T10:28:14.886Z,5176.00
2018-04-27T10:29:14.944Z,5144.00
2018-04-27T10:30:14.811Z,5096.00
2018-04-27T10:31:14.773Z,5120.00
2018-04-27T10:32:14.735Z,5180.00
2018-04-27T10:33:14.696Z,5268.00
2018-04-27T10:34:14.655Z,5240.00
2018-04-27T10:35:14.616Z,5324.00
2018-04-27T10:36:14.576Z,5252.00
2018-04-27T10:37:14.539Z,5240.00
2018-04-27T10:38:14.501Z,5260.00
2018-04-27T10:39:14.462Z,5308.00
2018-04-27T10:40:14.423Z,5304.00
2018-04-27T10:41:14.385Z,5424.00
2018-04-27T10:42:14.347Z,5616.00
2018-04-27T10:43:14.310Z,5748.00
2018-04-27T10:44:14.271Z,5956.00
2018-04-27T10:45:14.232Z,6264.00
2018-04-27T10:46:14.197Z,6084.00
2018-04-27T10:47:14.157Z,6380.00
2018-04-27T10:48:14.117Z,6348.00
2018-04-27T10:49:14.077Z,6176.00
2018-04-27T10:50:14.087Z,5972.00
2018-04-27T10:51:14.001Z,6540.00
2018-04-27T10:52:13.961Z,6368.00
2018-04-27T10:53:13.934Z,6220.00
2018-04-27T10:54:13.890Z,5940.00
2018-04-27T10:55:13.850Z,5900.00
2018-04-27T10:56:13.811Z,5788.00
2018-04-27T10:57:13.771Z,5828.00
2018-04-27T10:58:13.734Z,5764.00
2018-04-27T10:59:13.697Z,5712.00
2018-04-27T11:00:13.661Z,5604.00
2018-04-27T11:01:13.621Z,5884.00
2018-04-27T11:02:13.583Z,5948.00
2018-04-27T11:03:13.544Z,6044.00
2018-04-27T11:04:13.508Z,5688.00
2018-04-27T11:05:13.470Z,5976.00
2018-04-27T11:06:13.436Z,6044.00
2018-04-27T11:07:13.400Z,6016.00
2018-04-27T11:08:13.357Z,6248.00
2018-04-27T11:09:13.324Z,6372.00
2018-04-27T11:10:13.282Z,5808.00
2018-04-27T11:11:13.248Z,6004.00
2018-04-27T11:12:13.204Z,6228.00
2018-04-27T11:13:13.168Z,7208.00
2018-04-27T11:14:13.133Z,8784.00
2018-04-27T11:15:13.098Z,7860.00
2018-04-27T11:16:13.060Z,7880.00
2018-04-27T11:17:13.020Z,6792.00
2018-04-27T11:18:12.981Z,7016.00
2018-04-27T11:19:12.947Z,6684.00
2018-04-27T11:20:12.915Z,7268.00
2018-04-27T11:21:12.870Z,6620.00
2018-04-27T11:22:12.835Z,8216.00
2018-04-27T11:23:12.797Z,7696.00
2018-04-27T11:24:12.761Z,7664.00
2018-04-27T11:25:12.728Z,6256.00
2018-04-27T11:26:12.690Z,6280.00
2018-04-27T11:27:12.651Z,6632.00
2018-04-27T11:28:12.617Z,6452.00
2018-04-27T11:29:12.579Z,6772.00
2018-04-27T11:30:12.542Z,7556.00
2018-04-27T11:31:12.506Z,5580.00
2018-04-27T11:32:12.471Z,5680.00
2018-04-27T11:33:12.438Z,6080.00
2018-04-27T11:34:12.395Z,6884.00
2018-04-27T11:35:12.382Z,5212.00
2018-04-27T11:36:12.330Z,5072.00
2018-04-27T11:37:12.292Z,4824.00
2018-04-27T11:38:12.259Z,4676.00
2018-04-27T11:39:12.218Z,5016.00
2018-04-27T11:40:12.183Z,7564.00
2018-04-27T11:41:12.165Z,6448.00
2018-04-27T11:42:12.113Z,7228.00
2018-04-27T11:43:12.076Z,6420.00
2018-04-27T11:44:12.039Z,7228.00
2018-04-27T11:45:12.009Z,7292.00
2018-04-27T11:46:11.973Z,7320.00
2018-04-27T11:47:11.933Z,6804.00
2018-04-27T11:48:11.899Z,7544.00
2018-04-27T11:49:11.868Z,6432.00
2018-04-27T11:50:11.830Z,7700.00
2018-04-27T11:51:11.794Z,7704.00
2018-04-27T11:52:11.759Z,7244.00
2018-04-27T11:53:11.764Z,5992.00
2018-04-27T11:54:11.692Z,6476.00
2018-04-27T11:55:11.655Z,6628.00
2018-04-27T11:56:11.621Z,7452.00
2018-04-27T11:57:11.590Z,7896.00
2018-04-27T11:58:11.556Z,7740.00
2018-04-27T11:59:11.520Z,8096.00
2018-04-27T12:00:11.488Z,7636.00
2018-04-27T12:01:11.454Z,7716.00
2018-04-27T12:02:11.418Z,7772.00
2018-04-27T12:03:11.383Z,7704.00
2018-04-27T12:04:11.351Z,7644.00
2018-04-27T12:05:11.323Z,7780.00
2018-04-27T12:06:11.282Z,7664.00
2018-04-27T12:07:11.250Z,7736.00
2018-04-27T12:08:11.213Z,7564.00
2018-04-27T12:09:11.178Z,7508.00
2018-04-27T12:10:11.149Z,8592.00
2018-04-27T12:11:11.111Z,7264.00
2018-04-27T12:12:11.079Z,6900.00
2018-04-27T12:13:11.048Z,6576.00
2018-04-27T12:14:11.014Z,6980.00
2018-04-27T12:15:10.976Z,6252.00
2018-04-27T12:16:10.939Z,6484.00
2018-04-27T12:17:10.907Z,6336.00
2018-04-27T12:18:10.871Z,9100.00
2018-04-27T12:19:10.838Z,6144.00
2018-04-27T12:20:10.806Z,5980.00
2018-04-27T12:21:10.771Z,6048.00
2018-04-27T12:22:10.736Z,6212.00
2018-04-27T12:23:10.702Z,6092.00
2018-04-27T12:24:10.667Z,6472.00
2018-04-27T12:25:10.631Z,8980.00
2018-04-27T12:26:10.595Z,7248.00
2018-04-27T12:27:10.562Z,6916.00
2018-04-27T12:28:10.528Z,6708.00
2018-04-27T12:29:10.491Z,7008.00
2018-04-27T12:30:10.458Z,8328.00
2018-04-27T12:31:10.494Z,7524.00
2018-04-27T12:32:10.390Z,7784.00
2018-04-27T12:33:10.351Z,7872.00
2018-04-27T12:34:10.317Z,8028.00
2018-04-27T12:35:10.284Z,7308.00